Time;durP1;ratioP1;P1;durP2;ratioP2;P2;SDS_P1;SDS_P2;PMS_P1;PMS_P2;Temp;Humidity;BMP_temperature;BMP_pressure;BME280_temperature;BME280_humidity;BME280_pressure;Samples;Min_cycle;Max_cycle;Signal;HPM_P1;HPM_P2
2021/06/19 00:01:07;;;;;;;132.75;68.60;;;;;;;;;;4996047;28;20030;-73
2021/06/19 00:03:33;;;;;;;120.43;65.75;;;;;;;;;;5001700;28;20021;-72
2021/06/19 00:05:59;;;;;;;126.65;63.85;;;;;;;;;;5003546;28;20554;-68
2021/06/19 00:08:25;;;;;;;120.13;64.03;;;;;;;;;;4991496;28;20030;-72
2021/06/19 00:10:51;;;;;;;118.75;66.18;;;;;;;;;;4988440;28;20050;-74
2021/06/19 00:13:18;;;;;;;104.45;56.67;;;;;;;;;;4993400;28;20516;-71
2021/06/19 00:15:44;;;;;;;117.07;58.47;;;;;;;;;;4998071;28;20022;-72
2021/06/19 00:18:10;;;;;;;100.78;59.70;;;;;;;;;;5002029;28;20026;-70
2021/06/19 00:20:37;;;;;;;97.63;55.80;;;;;;;;;;4993329;28;20119;-72
2021/06/19 00:23:04;;;;;;;109.40;58.05;;;;;;;;;;5005587;28;20411;-73
2021/06/19 00:25:30;;;;;;;89.90;52.70;;;;;;;;;;4988765;28;20037;-71
2021/06/19 00:27:57;;;;;;;92.30;52.25;;;;;;;;;;4990498;28;20034;-72
2021/06/19 00:30:23;;;;;;;98.97;54.35;;;;;;;;;;4983038;28;20027;-71
2021/06/19 00:32:50;;;;;;;106.40;54.80;;;;;;;;;;4992531;28;20038;-69
2021/06/19 00:35:17;;;;;;;105.55;57.63;;;;;;;;;;4990086;28;20116;-72
2021/06/19 00:37:43;;;;;;;106.82;60.30;;;;;;;;;;4988793;28;20034;-72
2021/06/19 00:40:10;;;;;;;105.10;57.13;;;;;;;;;;4995232;28;20037;-72
2021/06/19 00:42:37;;;;;;;91.88;51.00;;;;;;;;;;4998914;28;20093;-72
2021/06/19 00:45:03;;;;;;;98.72;54.47;;;;;;;;;;4994954;28;20054;-70
2021/06/19 00:47:29;;;;;;;107.32;53.78;;;;;;;;;;4994947;28;20030;-73
2021/06/19 00:49:56;;;;;;;93.03;47.03;;;;;;;;;;4991285;28;20049;-72
2021/06/19 00:52:22;;;;;;;101.15;54.10;;;;;;;;;;4988425;28;20436;-70
2021/06/19 00:54:48;;;;;;;102.70;54.28;;;;;;;;;;5006152;28;20083;-72
2021/06/19 00:57:14;;;;;;;101.50;52.95;;;;;;;;;;4997766;28;20107;-73
2021/06/19 00:59:41;;;;;;;107.95;56.28;;;;;;;;;;5000484;28;20030;-73
2021/06/19 01:02:08;;;;;;;104.88;57.75;;;;;;;;;;5001060;28;20097;-75
2021/06/19 01:04:34;;;;;;;87.75;44.45;;;;;;;;;;5004104;28;20594;-69
2021/06/19 01:07:00;;;;;;;89.78;45.35;;;;;;;;;;4988568;28;20644;-73
2021/06/19 01:09:26;;;;;;;84.20;42.97;;;;;;;;;;4987530;28;20026;-75
2021/06/19 01:11:53;;;;;;;74.53;39.50;;;;;;;;;;4989383;28;20030;-75
2021/06/19 01:14:19;;;;;;;82.32;40.67;;;;;;;;;;4991094;28;20054;-75
2021/06/19 01:16:47;;;;;;;74.43;41.17;;;;;;;;;;4988384;28;20026;-74
2021/06/19 01:19:13;;;;;;;79.50;44.10;;;;;;;;;;4998203;28;20151;-76
2021/06/19 01:21:39;;;;;;;77.63;42.60;;;;;;;;;;4992206;28;20041;-74
2021/06/19 01:24:06;;;;;;;74.75;38.78;;;;;;;;;;5000235;28;20037;-75
2021/06/19 01:26:32;;;;;;;73.38;39.85;;;;;;;;;;4993542;28;20086;-74
2021/06/19 01:28:59;;;;;;;72.80;41.42;;;;;;;;;;4991693;28;20105;-75
2021/06/19 01:31:26;;;;;;;74.40;39.67;;;;;;;;;;4984681;28;20045;-74
2021/06/19 01:33:53;;;;;;;76.63;41.30;;;;;;;;;;4992566;28;20023;-74
2021/06/19 01:36:22;;;;;;;74.00;39.78;;;;;;;;;;4984472;28;20075;-73
2021/06/19 01:38:49;;;;;;;72.20;40.67;;;;;;;;;;4999972;28;20592;-72
2021/06/19 01:41:19;;;;;;;67.15;38.40;;;;;;;;;;4988328;28;20019;-73
2021/06/19 01:43:46;;;;;;;70.35;37.92;;;;;;;;;;4992447;28;20038;-73
2021/06/19 01:46:12;;;;;;;72.38;38.95;;;;;;;;;;4992146;28;20105;-74
2021/06/19 01:48:39;;;;;;;73.30;40.30;;;;;;;;;;4995341;28;20066;-74
2021/06/19 01:51:09;;;;;;;77.47;42.47;;;;;;;;;;4989281;28;20021;-73
2021/06/19 01:53:37;;;;;;;75.82;42.60;;;;;;;;;;4987902;28;20083;-73
2021/06/19 01:56:03;;;;;;;73.03;43.38;;;;;;;;;;4992292;28;20026;-73
2021/06/19 01:58:30;;;;;;;73.70;43.72;;;;;;;;;;5001656;28;20051;-73
2021/06/19 02:00:56;;;;;;;71.78;41.28;;;;;;;;;;4996875;28;20038;-72
2021/06/19 02:03:22;;;;;;;80.85;43.65;;;;;;;;;;4989522;28;20058;-72
2021/06/19 02:05:48;;;;;;;75.82;46.80;;;;;;;;;;4990919;28;20417;-72
2021/06/19 02:08:14;;;;;;;77.40;45.22;;;;;;;;;;5007153;28;20026;-73
2021/06/19 02:10:41;;;;;;;77.95;44.85;;;;;;;;;;5000218;28;20033;-73
2021/06/19 02:13:08;;;;;;;73.18;45.08;;;;;;;;;;5006386;28;20017;-75
2021/06/19 02:15:34;;;;;;;76.30;41.10;;;;;;;;;;4994723;28;20504;-72
2021/06/19 02:18:00;;;;;;;82.90;45.92;;;;;;;;;;5009105;28;20155;-74
2021/06/19 02:20:27;;;;;;;81.38;47.38;;;;;;;;;;4993227;28;20042;-73
2021/06/19 02:22:54;;;;;;;74.43;44.05;;;;;;;;;;5008908;28;20040;-74
2021/06/19 02:25:23;;;;;;;85.45;45.90;;;;;;;;;;4999341;28;20535;-74
2021/06/19 02:27:52;;;;;;;91.65;50.05;;;;;;;;;;4999681;28;20122;-74
2021/06/19 02:30:18;;;;;;;91.50;49.90;;;;;;;;;;4997593;28;20021;-74
2021/06/19 02:32:44;;;;;;;85.07;49.42;;;;;;;;;;4994525;28;20023;-74
2021/06/19 02:35:11;;;;;;;92.32;46.10;;;;;;;;;;4997276;28;20070;-74
2021/06/19 02:37:37;;;;;;;94.05;45.97;;;;;;;;;;4990885;28;20034;-75
2021/06/19 02:40:04;;;;;;;84.97;45.03;;;;;;;;;;4991601;28;20121;-74
2021/06/19 02:42:30;;;;;;;89.35;47.20;;;;;;;;;;4990526;28;20138;-73
2021/06/19 02:44:56;;;;;;;84.15;45.40;;;;;;;;;;4991800;28;20058;-74
2021/06/19 02:47:22;;;;;;;92.05;48.22;;;;;;;;;;4990628;28;20072;-76
2021/06/19 02:49:48;;;;;;;88.45;45.92;;;;;;;;;;4990345;28;20045;-74
2021/06/19 02:52:14;;;;;;;102.13;50.78;;;;;;;;;;5002452;28;20015;-74
2021/06/19 02:54:40;;;;;;;92.70;48.97;;;;;;;;;;4994972;28;20035;-74
2021/06/19 02:57:09;;;;;;;100.82;53.58;;;;;;;;;;4998164;28;20041;-73
2021/06/19 02:59:36;;;;;;;92.65;52.33;;;;;;;;;;4995414;28;20034;-75
2021/06/19 03:02:02;;;;;;;93.57;51.88;;;;;;;;;;4997215;28;20037;-75
2021/06/19 03:04:28;;;;;;;97.97;55.63;;;;;;;;;;4991569;28;20034;-75
2021/06/19 03:06:54;;;;;;;85.80;54.55;;;;;;;;;;5005535;28;20041;-72
2021/06/19 03:09:20;;;;;;;88.03;54.13;;;;;;;;;;4994128;28;20022;-74
2021/06/19 03:11:46;;;;;;;93.07;53.42;;;;;;;;;;4996216;28;20053;-74
2021/06/19 03:14:15;;;;;;;91.55;52.72;;;;;;;;;;4991183;28;20401;-75
2021/06/19 03:16:41;;;;;;;84.70;54.50;;;;;;;;;;4992431;28;20034;-72
2021/06/19 03:19:09;;;;;;;81.85;50.20;;;;;;;;;;5005583;28;20056;-71
2021/06/19 03:21:35;;;;;;;76.30;45.38;;;;;;;;;;4996188;28;20116;-72
2021/06/19 03:24:02;;;;;;;70.25;46.08;;;;;;;;;;4999158;28;20031;-71
2021/06/19 03:26:28;;;;;;;84.78;47.35;;;;;;;;;;4992774;28;20472;-72
2021/06/19 03:28:54;;;;;;;81.15;45.75;;;;;;;;;;4991816;28;20084;-71
2021/06/19 03:31:20;;;;;;;81.15;48.58;;;;;;;;;;4989478;28;20031;-73
2021/06/19 03:33:46;;;;;;;93.18;53.92;;;;;;;;;;4989606;28;20035;-71
2021/06/19 03:36:13;;;;;;;85.57;52.08;;;;;;;;;;5007554;28;20485;-72
2021/06/19 03:38:39;;;;;;;94.40;51.55;;;;;;;;;;5000738;28;20096;-71
2021/06/19 03:41:05;;;;;;;87.90;53.80;;;;;;;;;;4988419;28;20049;-71
2021/06/19 03:43:31;;;;;;;97.80;55.30;;;;;;;;;;4988318;28;20026;-72
2021/06/19 03:45:57;;;;;;;90.78;56.17;;;;;;;;;;4989855;28;20026;-71
2021/06/19 03:48:23;;;;;;;93.38;56.95;;;;;;;;;;4987697;28;20065;-72
2021/06/19 03:50:49;;;;;;;98.28;55.17;;;;;;;;;;4980274;28;20023;-71
2021/06/19 03:53:15;;;;;;;93.30;56.80;;;;;;;;;;4989792;28;20033;-72
2021/06/19 03:55:42;;;;;;;90.28;51.30;;;;;;;;;;4998915;28;20485;-69
2021/06/19 03:58:08;;;;;;;92.80;50.72;;;;;;;;;;4994323;28;20051;-68
2021/06/19 04:00:34;;;;;;;91.80;55.30;;;;;;;;;;4994091;28;20111;-72
2021/06/19 04:03:02;;;;;;;96.95;53.05;;;;;;;;;;4998222;28;20035;-70
2021/06/19 04:05:28;;;;;;;79.22;50.42;;;;;;;;;;4989810;28;20029;-70
2021/06/19 04:07:55;;;;;;;79.93;48.97;;;;;;;;;;4996009;28;20108;-72
2021/06/19 04:10:22;;;;;;;74.20;48.22;;;;;;;;;;4991115;28;20045;-71
2021/06/19 04:12:48;;;;;;;78.88;48.25;;;;;;;;;;4996619;28;20018;-73
2021/06/19 04:15:15;;;;;;;86.43;53.67;;;;;;;;;;4991583;28;20109;-71
2021/06/19 04:17:42;;;;;;;89.93;51.55;;;;;;;;;;4989540;28;20120;-71
2021/06/19 04:20:09;;;;;;;70.22;44.38;;;;;;;;;;4990508;28;20038;-73
2021/06/19 04:22:36;;;;;;;58.72;36.38;;;;;;;;;;4991844;28;20038;-72
2021/06/19 04:25:02;;;;;;;34.42;27.90;;;;;;;;;;4988659;28;20022;-70
2021/06/19 04:27:29;;;;;;;36.60;27.77;;;;;;;;;;4988948;28;20044;-71
2021/06/19 04:29:55;;;;;;;38.58;28.75;;;;;;;;;;4995705;28;20493;-74
2021/06/19 04:32:21;;;;;;;32.72;27.60;;;;;;;;;;4992012;28;20029;-72
2021/06/19 04:34:47;;;;;;;40.55;26.52;;;;;;;;;;4997484;28;20059;-72
2021/06/19 04:37:14;;;;;;;36.10;26.10;;;;;;;;;;5000825;28;20026;-71
2021/06/19 04:39:54;;;;;;;34.90;25.50;;;;;;;;;;4987305;28;20109;-69
2021/06/19 04:42:23;;;;;;;25.42;19.83;;;;;;;;;;5001162;28;20026;-73
2021/06/19 04:45:04;;;;;;;21.25;17.83;;;;;;;;;;4978524;28;20650;-74
2021/06/19 04:47:31;;;;;;;23.40;16.77;;;;;;;;;;4979658;28;20058;-73
2021/06/19 04:49:58;;;;;;;20.05;14.80;;;;;;;;;;4982493;28;20383;-72
2021/06/19 04:52:25;;;;;;;18.42;13.48;;;;;;;;;;4979328;28;20029;-72
2021/06/19 04:54:51;;;;;;;17.15;12.43;;;;;;;;;;4985416;28;20106;-73
2021/06/19 04:57:17;;;;;;;12.90;10.27;;;;;;;;;;4976503;28;20026;-71
2021/06/19 04:59:43;;;;;;;12.68;9.40;;;;;;;;;;5001704;28;20065;-73
2021/06/19 05:02:09;;;;;;;16.92;10.00;;;;;;;;;;4979834;28;20406;-74
2021/06/19 05:04:35;;;;;;;14.32;9.88;;;;;;;;;;4978372;28;20039;-72
2021/06/19 05:07:01;;;;;;;14.35;10.70;;;;;;;;;;4980490;28;20542;-74
2021/06/19 05:09:27;;;;;;;15.32;10.77;;;;;;;;;;4977191;28;20542;-72
2021/06/19 05:11:53;;;;;;;16.17;9.57;;;;;;;;;;4994639;28;20042;-70
2021/06/19 05:14:19;;;;;;;11.27;7.72;;;;;;;;;;4980820;28;20038;-72
2021/06/19 05:16:45;;;;;;;10.52;7.53;;;;;;;;;;4978781;28;20505;-71
2021/06/19 05:19:12;;;;;;;10.45;7.22;;;;;;;;;;4980526;28;20031;-74
2021/06/19 05:21:39;;;;;;;8.90;6.85;;;;;;;;;;4974657;28;20114;-75
2021/06/19 05:24:05;;;;;;;12.80;6.90;;;;;;;;;;4977576;28;20035;-69
2021/06/19 05:26:31;;;;;;;13.57;6.72;;;;;;;;;;4976164;28;20026;-71
2021/06/19 05:28:57;;;;;;;8.60;5.53;;;;;;;;;;4977372;28;20037;-72
2021/06/19 05:31:23;;;;;;;7.38;4.97;;;;;;;;;;4979315;28;20109;-73
2021/06/19 05:33:49;;;;;;;8.90;5.15;;;;;;;;;;4974255;28;20054;-74
2021/06/19 05:36:15;;;;;;;5.53;4.03;;;;;;;;;;4979391;28;20485;-73
2021/06/19 05:38:41;;;;;;;11.25;5.13;;;;;;;;;;4979827;28;20048;-74
2021/06/19 05:41:07;;;;;;;6.75;4.47;;;;;;;;;;4979601;28;20113;-74
2021/06/19 05:43:33;;;;;;;7.28;4.40;;;;;;;;;;4991025;28;20105;-74
2021/06/19 05:45:59;;;;;;;6.82;4.72;;;;;;;;;;5005703;28;20066;-75
2021/06/19 05:48:25;;;;;;;7.60;4.15;;;;;;;;;;4988312;28;20050;-72
2021/06/19 05:50:52;;;;;;;8.30;4.95;;;;;;;;;;4994714;28;20019;-72
2021/06/19 05:53:18;;;;;;;8.85;4.80;;;;;;;;;;4991045;28;20022;-74
2021/06/19 05:55:44;;;;;;;8.77;5.07;;;;;;;;;;4990268;28;20433;-73
2021/06/19 05:58:10;;;;;;;11.15;5.10;;;;;;;;;;4990821;28;20034;-71
2021/06/19 06:00:36;;;;;;;9.13;4.13;;;;;;;;;;4986103;28;20067;-71
2021/06/19 06:03:03;;;;;;;7.30;3.72;;;;;;;;;;5005001;28;20066;-74
2021/06/19 06:05:29;;;;;;;8.65;4.18;;;;;;;;;;4988974;28;20092;-73
2021/06/19 06:07:56;;;;;;;8.48;3.40;;;;;;;;;;4990155;28;20026;-73
2021/06/19 06:10:22;;;;;;;7.43;3.30;;;;;;;;;;4990271;28;20022;-73
2021/06/19 06:12:48;;;;;;;10.93;3.20;;;;;;;;;;4987245;28;20034;-72
2021/06/19 06:15:14;;;;;;;5.72;2.90;;;;;;;;;;4990085;28;20500;-74
2021/06/19 06:17:40;;;;;;;6.82;3.38;;;;;;;;;;4996930;28;20068;-70
2021/06/19 06:20:07;;;;;;;6.53;3.13;;;;;;;;;;4991511;28;20034;-73
2021/06/19 06:22:33;;;;;;;7.82;2.97;;;;;;;;;;5002415;28;20076;-73
2021/06/19 06:24:59;;;;;;;6.43;2.90;;;;;;;;;;4991778;28;20022;-75
2021/06/19 06:27:25;;;;;;;9.10;2.53;;;;;;;;;;5005495;28;20030;-72
2021/06/19 06:29:51;;;;;;;7.18;2.95;;;;;;;;;;5003581;28;20033;-73
2021/06/19 06:32:17;;;;;;;8.57;2.58;;;;;;;;;;4995353;28;20027;-73
2021/06/19 06:34:43;;;;;;;7.60;3.05;;;;;;;;;;4991182;28;20061;-74
2021/06/19 06:37:09;;;;;;;10.63;4.45;;;;;;;;;;4998475;28;20030;-74
2021/06/19 06:39:35;;;;;;;11.38;3.03;;;;;;;;;;4991299;28;20034;-73
2021/06/19 06:42:01;;;;;;;6.35;3.05;;;;;;;;;;4975187;28;20023;-73
2021/06/19 06:44:28;;;;;;;4.50;2.90;;;;;;;;;;4999691;28;20033;-73
2021/06/19 06:46:54;;;;;;;8.23;3.17;;;;;;;;;;5003496;28;20365;-73
2021/06/19 06:49:20;;;;;;;10.00;3.35;;;;;;;;;;4988401;28;20103;-72
2021/06/19 06:51:47;;;;;;;6.75;3.22;;;;;;;;;;4998173;28;20022;-73
2021/06/19 06:54:14;;;;;;;10.57;4.07;;;;;;;;;;4989666;28;20019;-74
2021/06/19 06:56:40;;;;;;;7.85;3.33;;;;;;;;;;4993595;28;20057;-73
2021/06/19 06:59:06;;;;;;;8.20;3.58;;;;;;;;;;4994559;28;20025;-73
2021/06/19 07:01:32;;;;;;;5.70;3.13;;;;;;;;;;4985332;28;20091;-73
2021/06/19 07:03:59;;;;;;;7.75;3.58;;;;;;;;;;4991636;28;20026;-72
2021/06/19 07:06:25;;;;;;;8.80;3.38;;;;;;;;;;4990824;28;20038;-72
2021/06/19 07:08:51;;;;;;;7.00;2.75;;;;;;;;;;4992834;28;20065;-73
2021/06/19 07:11:18;;;;;;;10.27;3.30;;;;;;;;;;4993678;28;20019;-76
2021/06/19 07:13:44;;;;;;;8.30;3.28;;;;;;;;;;5000286;28;20029;-73
2021/06/19 07:16:10;;;;;;;5.70;2.53;;;;;;;;;;4992711;28;20413;-73
2021/06/19 07:18:36;;;;;;;5.50;2.45;;;;;;;;;;4999176;28;20111;-71
2021/06/19 07:21:02;;;;;;;5.80;3.30;;;;;;;;;;4988337;28;20058;-70
2021/06/19 07:23:29;;;;;;;4.93;2.80;;;;;;;;;;4993237;28;20034;-72
2021/06/19 07:25:56;;;;;;;7.18;2.90;;;;;;;;;;4984811;28;20046;-72
2021/06/19 07:28:22;;;;;;;6.78;3.22;;;;;;;;;;4998093;28;20049;-73
2021/06/19 07:30:48;;;;;;;5.00;2.80;;;;;;;;;;4983210;28;20076;-70
2021/06/19 07:33:14;;;;;;;7.18;3.20;;;;;;;;;;4989621;28;20122;-72
2021/06/19 07:35:41;;;;;;;4.97;2.63;;;;;;;;;;4975716;28;20057;-72
2021/06/19 07:38:07;;;;;;;4.57;2.53;;;;;;;;;;4973568;28;20145;-72
2021/06/19 07:40:33;;;;;;;4.97;2.33;;;;;;;;;;4985399;28;20026;-73
2021/06/19 07:42:59;;;;;;;7.93;2.60;;;;;;;;;;4986407;28;20045;-73
2021/06/19 07:45:25;;;;;;;7.03;2.33;;;;;;;;;;4983437;28;20037;-72
2021/06/19 07:47:51;;;;;;;6.45;2.58;;;;;;;;;;5001723;28;20030;-72
2021/06/19 07:50:17;;;;;;;4.55;2.35;;;;;;;;;;4996522;28;20447;-73
2021/06/19 07:52:44;;;;;;;8.23;2.97;;;;;;;;;;4987196;28;20030;-73
2021/06/19 07:55:11;;;;;;;7.30;3.10;;;;;;;;;;4986482;28;20076;-70
2021/06/19 07:57:37;;;;;;;7.03;3.45;;;;;;;;;;4987960;28;20122;-73
2021/06/19 08:00:04;;;;;;;6.00;3.70;;;;;;;;;;4987612;28;20022;-71
2021/06/19 08:02:30;;;;;;;6.70;3.40;;;;;;;;;;4983754;28;20041;-71
2021/06/19 08:04:56;;;;;;;9.57;4.07;;;;;;;;;;4984929;28;20042;-72
2021/06/19 08:07:22;;;;;;;9.82;3.95;;;;;;;;;;4982918;28;20535;-72
2021/06/19 08:09:48;;;;;;;9.52;4.10;;;;;;;;;;4987272;28;20103;-72
2021/06/19 08:12:14;;;;;;;10.18;3.83;;;;;;;;;;4984603;28;20122;-71
2021/06/19 08:14:41;;;;;;;8.00;4.28;;;;;;;;;;4986257;28;20079;-72
2021/06/19 08:17:19;;;;;;;7.68;4.18;;;;;;;;;;4986493;28;20080;-71
2021/06/19 08:19:45;;;;;;;11.60;4.65;;;;;;;;;;4985520;28;20046;-72
2021/06/19 08:22:12;;;;;;;7.60;4.00;;;;;;;;;;4985849;28;20038;-72
2021/06/19 08:24:38;;;;;;;7.35;4.95;;;;;;;;;;4988472;28;20022;-72
2021/06/19 08:27:04;;;;;;;8.00;4.35;;;;;;;;;;4987527;28;20033;-72
2021/06/19 08:29:30;;;;;;;10.27;4.72;;;;;;;;;;4987799;28;20019;-71
2021/06/19 08:31:56;;;;;;;7.88;3.88;;;;;;;;;;4985976;28;20019;-71
2021/06/19 08:34:22;;;;;;;8.55;4.30;;;;;;;;;;4991788;28;20050;-71
2021/06/19 08:36:49;;;;;;;10.90;4.15;;;;;;;;;;4987064;28;20103;-71
2021/06/19 08:39:15;;;;;;;8.65;4.65;;;;;;;;;;4987559;28;20031;-70
2021/06/19 08:41:44;;;;;;;11.95;4.35;;;;;;;;;;4986630;28;20115;-71
2021/06/19 08:44:11;;;;;;;7.85;3.80;;;;;;;;;;4986634;28;20022;-71
2021/06/19 08:46:37;;;;;;;8.73;4.18;;;;;;;;;;4987299;28;20035;-73
2021/06/19 08:49:03;;;;;;;10.23;3.90;;;;;;;;;;4987884;28;20494;-74
2021/06/19 08:51:29;;;;;;;7.03;3.42;;;;;;;;;;4985043;28;20121;-73
2021/06/19 08:53:55;;;;;;;9.60;4.07;;;;;;;;;;4985346;28;20111;-71
2021/06/19 08:56:23;;;;;;;6.45;3.65;;;;;;;;;;4985390;28;20494;-72
2021/06/19 08:58:50;;;;;;;6.57;3.72;;;;;;;;;;4985938;28;20089;-71
2021/06/19 09:01:16;;;;;;;7.72;3.70;;;;;;;;;;4986520;28;20038;-70
2021/06/19 09:03:42;;;;;;;6.97;3.38;;;;;;;;;;4987215;28;20038;-71
2021/06/19 09:06:21;;;;;;;5.88;3.10;;;;;;;;;;4987738;28;20033;-72
2021/06/19 09:09:00;;;;;;;6.88;3.63;;;;;;;;;;4986379;28;20107;-71
2021/06/19 09:11:37;;;;;;;8.18;3.72;;;;;;;;;;4979670;28;20022;-71
2021/06/19 09:14:05;;;;;;;8.95;4.35;;;;;;;;;;4987955;28;20042;-71
2021/06/19 09:16:31;;;;;;;7.22;3.42;;;;;;;;;;4990057;28;20015;-70
2021/06/19 09:18:57;;;;;;;6.22;3.50;;;;;;;;;;4988778;28;20026;-71
2021/06/19 09:21:27;;;;;;;6.95;3.60;;;;;;;;;;4992715;28;20030;-71
2021/06/19 09:23:53;;;;;;;9.07;3.45;;;;;;;;;;4990063;28;20029;-70
2021/06/19 09:26:20;;;;;;;7.15;4.22;;;;;;;;;;4990475;28;20048;-70
2021/06/19 09:29:05;;;;;;;6.35;3.03;;;;;;;;;;4987335;28;20073;-71
2021/06/19 09:31:50;;;;;;;7.53;3.08;;;;;;;;;;4996854;28;20045;-71
2021/06/19 09:34:21;;;;;;;8.65;2.75;;;;;;;;;;4989710;28;20022;-70
2021/06/19 09:36:58;;;;;;;6.63;3.20;;;;;;;;;;4984989;28;20654;-71
2021/06/19 09:39:26;;;;;;;9.93;3.80;;;;;;;;;;4988240;28;20080;-70
2021/06/19 09:41:53;;;;;;;6.93;2.85;;;;;;;;;;5000578;28;20023;-70
2021/06/19 09:44:38;;;;;;;5.03;2.83;;;;;;;;;;4992671;28;20405;-71
2021/06/19 09:47:05;;;;;;;7.43;3.25;;;;;;;;;;4997186;28;20039;-72
2021/06/19 09:49:32;;;;;;;4.93;2.88;;;;;;;;;;4989103;28;20454;-69
2021/06/19 09:51:58;;;;;;;7.05;2.80;;;;;;;;;;4986864;28;20019;-70
2021/06/19 09:54:24;;;;;;;5.03;2.22;;;;;;;;;;4989044;28;20092;-70
2021/06/19 09:56:59;;;;;;;4.55;2.42;;;;;;;;;;4994265;28;20014;-70
2021/06/19 09:59:29;;;;;;;4.32;2.47;;;;;;;;;;4987530;28;20053;-71
2021/06/19 10:01:56;;;;;;;6.03;2.42;;;;;;;;;;4986013;28;20052;-70
2021/06/19 10:04:24;;;;;;;7.18;3.13;;;;;;;;;;4986037;28;20125;-70
2021/06/19 10:06:51;;;;;;;7.18;2.67;;;;;;;;;;4987939;28;20481;-70
2021/06/19 10:09:17;;;;;;;3.95;2.03;;;;;;;;;;4995666;28;20046;-70
2021/06/19 10:11:45;;;;;;;4.57;2.47;;;;;;;;;;4992187;28;20159;-71
2021/06/19 10:14:17;;;;;;;3.80;1.98;;;;;;;;;;4996295;28;20075;-69
2021/06/19 10:16:43;;;;;;;;;;;;;;;;;;4989521;28;20080;-68
2021/06/19 10:19:10;;;;;;;6.72;2.90;;;;;;;;;;4990631;28;19956;-70
2021/06/19 10:21:36;;;;;;;5.18;2.60;;;;;;;;;;4986915;28;20026;-71
2021/06/19 10:24:03;;;;;;;6.65;3.13;;;;;;;;;;4989125;28;20030;-72
2021/06/19 10:26:30;;;;;;;5.20;2.50;;;;;;;;;;4987715;28;20107;-71
2021/06/19 10:29:00;;;;;;;5.00;3.10;;;;;;;;;;4988346;28;20087;-71
2021/06/19 10:31:26;;;;;;;4.57;3.03;;;;;;;;;;4985535;28;20071;-71
2021/06/19 10:33:52;;;;;;;6.82;3.58;;;;;;;;;;4989133;28;20015;-69
2021/06/19 10:36:19;;;;;;;7.70;3.30;;;;;;;;;;4989407;28;20044;-70
2021/06/19 10:38:51;;;;;;;5.85;3.38;;;;;;;;;;4988886;28;20026;-71
2021/06/19 10:41:18;;;;;;;6.40;3.17;;;;;;;;;;4986233;28;20034;-70
2021/06/19 10:43:46;;;;;;;4.80;2.70;;;;;;;;;;4991420;28;20037;-70
2021/06/19 10:46:27;;;;;;;9.93;3.63;;;;;;;;;;4988935;28;20054;-69
2021/06/19 10:48:54;;;;;;;8.70;3.43;;;;;;;;;;4993165;28;20521;-71
2021/06/19 10:51:25;;;;;;;56.67;22.75;;;;;;;;;;4985953;28;20109;-69
2021/06/19 10:54:06;;;;;;;6.90;3.00;;;;;;;;;;4989406;28;20031;-70
2021/06/19 10:56:52;;;;;;;6.65;3.50;;;;;;;;;;4988363;28;20045;-69
2021/06/19 10:59:22;;;;;;;8.40;3.67;;;;;;;;;;4986880;28;20512;-71
2021/06/19 11:01:49;;;;;;;4.78;3.30;;;;;;;;;;4984538;28;20072;-69
2021/06/19 11:04:34;;;;;;;5.47;3.50;;;;;;;;;;4988635;28;20072;-70
2021/06/19 11:07:00;;;;;;;6.20;3.38;;;;;;;;;;4988481;28;20119;-70
2021/06/19 11:09:36;;;;;;;5.57;2.60;;;;;;;;;;4987841;28;20026;-69
2021/06/19 11:12:04;;;;;;;5.60;3.20;;;;;;;;;;4988284;28;20479;-70
2021/06/19 11:14:42;;;;;;;8.40;2.90;;;;;;;;;;4988129;28;20364;-69
2021/06/19 11:17:28;;;;;;;6.13;2.53;;;;;;;;;;4991471;28;20026;-70
2021/06/19 11:19:55;;;;;;;4.65;2.30;;;;;;;;;;4982711;28;20052;-69
2021/06/19 11:22:25;;;;;;;6.57;2.90;;;;;;;;;;4985785;28;20113;-69
2021/06/19 11:25:09;;;;;;;5.00;2.53;;;;;;;;;;4985832;28;20080;-69
2021/06/19 11:27:48;;;;;;;4.88;1.98;;;;;;;;;;4986758;28;20030;-69
2021/06/19 11:30:37;;;;;;;5.00;2.60;;;;;;;;;;4986745;28;20033;-69
2021/06/19 11:33:19;;;;;;;5.70;2.65;;;;;;;;;;4983747;28;20038;-69
2021/06/19 11:35:47;;;;;;;264.30;44.22;;;;;;;;;;4988060;28;20049;-69
2021/06/19 11:38:13;;;;;;;62.58;12.35;;;;;;;;;;4987550;28;20034;-69
2021/06/19 11:40:40;;;;;;;31.42;6.88;;;;;;;;;;4985464;28;20038;-68
2021/06/19 11:43:07;;;;;;;16.90;3.70;;;;;;;;;;4987505;28;20030;-69
2021/06/19 11:45:34;;;;;;;4.95;2.35;;;;;;;;;;4987817;28;20027;-69
2021/06/19 11:48:03;;;;;;;4.28;2.33;;;;;;;;;;4987755;28;20086;-69
2021/06/19 11:50:30;;;;;;;6.40;2.97;;;;;;;;;;4987789;28;20117;-70
2021/06/19 11:52:56;;;;;;;6.85;3.25;;;;;;;;;;4985261;28;20478;-70
2021/06/19 11:55:23;;;;;;;7.65;2.50;;;;;;;;;;4984753;28;20030;-70
2021/06/19 11:57:58;;;;;;;7.53;2.83;;;;;;;;;;4988010;28;20533;-70
2021/06/19 12:00:24;;;;;;;6.85;3.22;;;;;;;;;;4984580;28;20033;-70
2021/06/19 12:02:53;;;;;;;5.85;3.13;;;;;;;;;;4987241;28;20072;-71
2021/06/19 12:05:19;;;;;;;5.85;2.88;;;;;;;;;;4986375;28;20615;-70
2021/06/19 12:07:46;;;;;;;7.10;3.72;;;;;;;;;;4992974;28;20090;-70
2021/06/19 12:10:26;;;;;;;7.07;3.25;;;;;;;;;;4985411;28;20033;-70
2021/06/19 12:12:58;;;;;;;4.45;2.78;;;;;;;;;;4986211;28;20022;-70
2021/06/19 12:15:25;;;;;;;5.13;3.15;;;;;;;;;;4986369;28;20096;-70
2021/06/19 12:17:51;;;;;;;8.50;3.97;;;;;;;;;;4987201;28;20317;-70
2021/06/19 12:20:21;;;;;;;6.80;2.92;;;;;;;;;;4985501;28;20018;-70
2021/06/19 12:22:47;;;;;;;4.57;2.78;;;;;;;;;;4984364;28;20084;-71
2021/06/19 12:25:26;;;;;;;11.30;3.65;;;;;;;;;;4982156;28;20030;-70
2021/06/19 12:27:52;;;;;;;5.95;3.00;;;;;;;;;;4988313;28;20023;-70
2021/06/19 12:30:18;;;;;;;31.80;6.55;;;;;;;;;;4984987;28;20030;-69
2021/06/19 12:32:44;;;;;;;22.17;4.85;;;;;;;;;;4983820;28;20034;-69
2021/06/19 12:35:11;;;;;;;5.00;2.92;;;;;;;;;;4984794;28;20042;-70
2021/06/19 12:37:49;;;;;;;8.40;3.47;;;;;;;;;;4987418;28;20030;-69
2021/06/19 12:40:16;;;;;;;6.57;3.22;;;;;;;;;;4984017;28;20037;-69
2021/06/19 12:43:00;;;;;;;7.35;3.45;;;;;;;;;;4985916;28;20247;-69
2021/06/19 12:45:36;;;;;;;5.72;3.45;;;;;;;;;;4985182;28;20049;-70
2021/06/19 12:48:04;;;;;;;6.95;3.22;;;;;;;;;;4987363;28;20030;-70
2021/06/19 12:50:30;;;;;;;6.32;3.15;;;;;;;;;;4987560;28;20023;-70
2021/06/19 12:53:04;;;;;;;8.75;3.42;;;;;;;;;;4985985;28;20041;-69
2021/06/19 12:55:33;;;;;;;6.80;3.50;;;;;;;;;;4985780;28;20493;-69
2021/06/19 12:58:03;;;;;;;7.45;4.35;;;;;;;;;;4987651;28;20027;-70
2021/06/19 13:00:43;;;;;;;7.82;3.20;;;;;;;;;;4984991;28;20030;-69
2021/06/19 13:03:10;;;;;;;8.60;3.60;;;;;;;;;;4984625;28;20031;-70
2021/06/19 13:05:49;;;;;;;11.90;3.47;;;;;;;;;;4988976;28;20113;-70
2021/06/19 13:08:16;;;;;;;9.50;3.78;;;;;;;;;;4981278;28;20056;-70
2021/06/19 13:10:42;;;;;;;9.13;4.05;;;;;;;;;;4985981;28;20023;-69
2021/06/19 13:13:09;;;;;;;5.93;3.58;;;;;;;;;;4986429;28;20026;-69
2021/06/19 13:15:35;;;;;;;5.75;3.88;;;;;;;;;;4985941;28;20057;-69
2021/06/19 13:18:12;;;;;;;7.00;3.67;;;;;;;;;;4983610;28;20038;-70
2021/06/19 13:20:38;;;;;;;6.07;3.63;;;;;;;;;;4985843;28;20536;-69
2021/06/19 13:23:06;;;;;;;6.85;3.58;;;;;;;;;;4986703;28;20022;-68
2021/06/19 13:25:50;;;;;;;8.10;4.05;;;;;;;;;;4985471;28;20294;-69
2021/06/19 13:28:17;;;;;;;9.07;3.85;;;;;;;;;;4983115;28;20057;-68
2021/06/19 13:30:43;;;;;;;9.85;3.85;;;;;;;;;;4985901;28;20049;-69
2021/06/19 13:33:09;;;;;;;7.63;4.10;;;;;;;;;;4985353;28;20030;-68
2021/06/19 13:35:50;;;;;;;9.77;4.80;;;;;;;;;;4985272;28;20062;-69
2021/06/19 13:38:16;;;;;;;14.00;5.28;;;;;;;;;;4981887;28;20030;-69
2021/06/19 13:40:42;;;;;;;10.30;5.03;;;;;;;;;;4986364;28;20042;-68
2021/06/19 13:43:09;;;;;;;7.75;4.22;;;;;;;;;;4981055;28;20042;-69
2021/06/19 13:45:35;;;;;;;7.95;4.75;;;;;;;;;;4985440;28;20026;-68
2021/06/19 13:48:02;;;;;;;11.95;4.90;;;;;;;;;;4977419;28;20046;-68
2021/06/19 13:50:28;;;;;;;9.90;4.95;;;;;;;;;;4985545;28;20034;-69
2021/06/19 13:52:54;;;;;;;9.85;4.15;;;;;;;;;;4984357;28;20026;-68
2021/06/19 13:55:25;;;;;;;9.80;5.15;;;;;;;;;;4986116;28;20022;-68
2021/06/19 13:57:51;;;;;;;10.75;4.00;;;;;;;;;;4981974;28;20291;-68
2021/06/19 14:00:17;;;;;;;8.07;5.47;;;;;;;;;;4985194;28;20042;-68
2021/06/19 14:02:43;;;;;;;6.95;3.85;;;;;;;;;;4986555;28;20096;-69
2021/06/19 14:05:09;;;;;;;12.45;5.35;;;;;;;;;;4989227;28;20038;-69
2021/06/19 14:07:36;;;;;;;11.23;4.97;;;;;;;;;;4986094;28;20369;-69
2021/06/19 14:10:02;;;;;;;9.95;4.75;;;;;;;;;;4989045;28;20144;-69
2021/06/19 14:12:28;;;;;;;8.95;5.00;;;;;;;;;;4995681;28;20028;-69
2021/06/19 14:14:54;;;;;;;12.90;5.80;;;;;;;;;;4997473;28;20037;-69
2021/06/19 14:17:20;;;;;;;10.25;5.70;;;;;;;;;;4985824;28;20030;-68
2021/06/19 14:19:46;;;;;;;10.90;5.55;;;;;;;;;;4989207;28;20030;-69
2021/06/19 14:22:12;;;;;;;10.57;5.85;;;;;;;;;;4985503;28;20079;-69
2021/06/19 14:24:38;;;;;;;10.30;6.03;;;;;;;;;;4988407;28;20378;-69
2021/06/19 14:27:10;;;;;;;10.57;5.13;;;;;;;;;;4984279;28;20038;-68
2021/06/19 14:29:36;;;;;;;9.98;6.47;;;;;;;;;;4988524;28;20027;-68
2021/06/19 14:32:03;;;;;;;13.85;5.38;;;;;;;;;;4991762;28;20096;-69
2021/06/19 14:34:31;;;;;;;11.25;5.97;;;;;;;;;;4987451;28;20424;-69